createdAt,value
2022-12-26T00:01:22.679Z,35.85
2022-12-26T00:04:51.101Z,35.47
2022-12-26T00:07:16.776Z,36.53
2022-12-26T00:10:02.278Z,35.85
2022-12-26T00:12:47.445Z,38.28
2022-12-26T00:15:33.036Z,38.22
2022-12-26T00:18:18.552Z,38.60
2022-12-26T00:21:04.713Z,37.15
2022-12-26T00:23:50.605Z,38.67
2022-12-26T00:26:36.227Z,37.97
2022-12-26T00:29:22.973Z,36.80
2022-12-26T00:32:11.615Z,37.30
2022-12-26T00:34:57.286Z,39.15
2022-12-26T00:37:48.950Z,40.63
2022-12-26T00:40:43.050Z,40.87
2022-12-26T00:43:31.055Z,43.47
2022-12-26T00:46:17.622Z,43.03
2022-12-26T00:49:04.402Z,41.75
2022-12-26T00:51:58.995Z,44.28
2022-12-26T00:54:44.504Z,42.60
2022-12-26T00:57:30.035Z,42.17
2022-12-26T01:00:17.294Z,40.60
2022-12-26T01:03:10.421Z,40.10
2022-12-26T01:05:56.021Z,39.22
2022-12-26T01:08:41.792Z,40.28
2022-12-26T01:11:53.984Z,38.47
2022-12-26T01:14:39.816Z,39.47
2022-12-26T01:17:25.801Z,39.55
2022-12-26T01:20:11.813Z,39.35
2022-12-26T01:22:57.245Z,38.95
2022-12-26T01:26:15.607Z,38.58
2022-12-26T01:28:50.933Z,36.03
2022-12-26T01:31:36.449Z,34.42
2022-12-26T01:34:22.183Z,35.25
2022-12-26T01:37:07.744Z,33.88
2022-12-26T01:39:53.441Z,33.22
2022-12-26T01:42:42.840Z,32.38
2022-12-26T01:45:31.531Z,30.52
2022-12-26T01:48:33.460Z,30.05
2022-12-26T01:51:24.080Z,29.25
2022-12-26T01:54:37.382Z,27.92
2022-12-26T01:57:22.196Z,28.13
2022-12-26T02:00:14.693Z,25.75
2022-12-26T02:03:19.853Z,26.52
2022-12-26T02:06:05.734Z,25.13
2022-12-26T02:08:51.701Z,25.75
2022-12-26T02:11:42.834Z,25.15
2022-12-26T02:14:28.492Z,24.27
2022-12-26T02:17:14.406Z,24.40
2022-12-26T02:20:20.656Z,24.10
2022-12-26T02:23:44.285Z,24.30
2022-12-26T02:26:47.480Z,24.77
2022-12-26T02:29:44.656Z,22.85
2022-12-26T02:33:05.706Z,25.00
2022-12-26T02:36:15.988Z,24.02
2022-12-26T02:39:44.933Z,23.10
2022-12-26T02:42:48.607Z,25.45
2022-12-26T02:46:23.336Z,24.08
2022-12-26T02:49:30.133Z,25.00
2022-12-26T02:52:40.149Z,26.35
2022-12-26T02:55:47.609Z,26.63
2022-12-26T02:59:05.731Z,26.20
2022-12-26T03:02:13.031Z,30.80
2022-12-26T03:05:18.415Z,30.33
2022-12-26T03:08:28.119Z,31.40
2022-12-26T03:11:32.744Z,30.58
2022-12-26T03:14:22.984Z,31.38
2022-12-26T03:17:22.000Z,33.75
2022-12-26T03:20:18.249Z,33.15
2022-12-26T03:23:14.785Z,33.88
2022-12-26T03:26:24.988Z,32.50
2022-12-26T03:29:42.095Z,31.35
2022-12-26T03:32:27.666Z,32.33
2022-12-26T03:35:15.341Z,30.90
2022-12-26T03:38:08.153Z,30.10
2022-12-26T03:41:22.168Z,29.25
2022-12-26T03:44:32.296Z,27.08
2022-12-26T03:47:45.033Z,28.02
2022-12-26T03:51:06.246Z,25.08
2022-12-26T03:54:17.475Z,25.95
2022-12-26T03:57:41.940Z,24.83
2022-12-26T04:00:49.405Z,23.58
2022-12-26T04:03:55.054Z,25.85
2022-12-26T04:07:06.763Z,23.90
2022-12-26T04:10:22.403Z,21.70
2022-12-26T04:13:40.836Z,19.67
2022-12-26T04:16:47.936Z,19.85
2022-12-26T04:20:03.282Z,17.08
2022-12-26T04:23:28.783Z,16.13
2022-12-26T04:26:41.214Z,13.10
2022-12-26T04:29:45.091Z,13.82
2022-12-26T04:32:58.350Z,12.98
2022-12-26T04:36:12.834Z,14.35
2022-12-26T04:39:21.402Z,12.98
2022-12-26T04:42:27.062Z,11.13
2022-12-26T04:45:14.195Z,10.43
2022-12-26T04:48:18.013Z,11.88
2022-12-26T04:51:06.284Z,9.55
2022-12-26T04:53:54.586Z,8.38
2022-12-26T04:56:40.437Z,8.95
2022-12-26T04:59:26.305Z,8.20
2022-12-26T05:02:30.430Z,8.52
2022-12-26T05:05:34.478Z,8.85
2022-12-26T05:08:54.167Z,7.65
2022-12-26T05:11:39.465Z,8.27
2022-12-26T05:14:25.092Z,8.00
2022-12-26T05:17:32.150Z,7.90
2022-12-26T05:20:36.166Z,7.35
2022-12-26T05:23:43.968Z,7.10
2022-12-26T05:26:54.074Z,6.20
2022-12-26T05:29:39.293Z,6.05
2022-12-26T05:32:43.701Z,6.53
2022-12-26T05:35:29.062Z,5.90
2022-12-26T05:38:14.895Z,5.50
2022-12-26T05:41:00.423Z,6.07
2022-12-26T05:43:45.880Z,5.80
2022-12-26T05:46:33.042Z,5.20
2022-12-26T05:49:18.408Z,5.68
2022-12-26T05:52:03.821Z,6.22
2022-12-26T05:54:49.767Z,6.68
2022-12-26T05:57:35.064Z,6.95
2022-12-26T06:00:22.927Z,8.38
2022-12-26T06:03:11.318Z,8.02
2022-12-26T06:05:57.712Z,7.80
2022-12-26T06:08:43.705Z,8.13
2022-12-26T06:11:32.303Z,7.97
2022-12-26T06:14:18.200Z,7.55
2022-12-26T06:20:12.088Z,7.05
2022-12-26T06:23:00.242Z,7.38
2022-12-26T06:25:55.359Z,6.95
2022-12-26T06:28:42.707Z,7.53
2022-12-26T06:31:28.012Z,6.38
2022-12-26T06:34:13.823Z,6.95
2022-12-26T06:36:59.941Z,6.20
2022-12-26T06:39:46.762Z,6.22
2022-12-26T06:42:32.274Z,6.03
2022-12-26T06:45:18.023Z,5.15
2022-12-26T06:48:03.722Z,5.35
2022-12-26T06:50:49.029Z,5.80
2022-12-26T06:53:34.764Z,5.10
2022-12-26T06:56:23.473Z,4.50
2022-12-26T06:59:12.058Z,5.13
2022-12-26T07:01:57.860Z,4.75
2022-12-26T07:04:43.721Z,5.28
2022-12-26T07:07:29.010Z,4.80
2022-12-26T07:10:14.428Z,4.13
2022-12-26T07:12:59.934Z,4.05
2022-12-26T07:15:45.599Z,3.85
2022-12-26T07:18:31.113Z,4.60
2022-12-26T07:21:16.733Z,5.18
2022-12-26T07:24:02.252Z,4.70
2022-12-26T07:26:48.240Z,3.58
2022-12-26T07:29:34.064Z,4.00
2022-12-26T07:32:19.399Z,3.80
2022-12-26T07:35:05.479Z,3.78
2022-12-26T07:37:51.044Z,4.47
2022-12-26T07:40:39.181Z,3.83
2022-12-26T07:43:25.526Z,5.85
2022-12-26T07:46:11.148Z,5.05
2022-12-26T07:48:59.393Z,5.28
2022-12-26T07:51:47.844Z,5.78
2022-12-26T07:54:33.393Z,5.15
2022-12-26T08:00:23.890Z,6.80
2022-12-26T08:03:12.581Z,5.80
2022-12-26T08:05:59.367Z,5.68
2022-12-26T08:08:50.854Z,5.50
2022-12-26T08:11:36.727Z,5.70
2022-12-26T08:14:22.561Z,5.47
2022-12-26T08:17:10.954Z,5.07
2022-12-26T08:19:56.354Z,4.95
2022-12-26T08:22:41.754Z,5.93
2022-12-26T08:25:27.791Z,5.45
2022-12-26T08:28:13.436Z,6.45
2022-12-26T08:30:59.267Z,6.05
2022-12-26T08:33:44.949Z,6.72
2022-12-26T08:36:30.373Z,7.25
2022-12-26T08:39:18.446Z,7.75
2022-12-26T08:42:06.586Z,5.38
2022-12-26T08:44:52.342Z,5.93
2022-12-26T08:47:37.628Z,4.90
2022-12-26T08:50:23.223Z,5.43
2022-12-26T08:53:09.270Z,4.78
2022-12-26T08:55:56.490Z,3.40
2022-12-26T08:58:42.386Z,3.42
2022-12-26T09:01:30.626Z,3.20
2022-12-26T09:04:16.354Z,2.67
2022-12-26T09:07:01.694Z,2.60
2022-12-26T09:09:48.705Z,3.42
2022-12-26T09:12:34.093Z,2.83
2022-12-26T09:15:20.207Z,4.03
2022-12-26T09:18:05.664Z,2.90
2022-12-26T09:20:50.961Z,3.72
2022-12-26T09:23:37.708Z,4.72
2022-12-26T09:26:22.911Z,4.80
2022-12-26T09:29:11.041Z,4.57
2022-12-26T09:31:56.572Z,4.10
2022-12-26T09:34:44.740Z,4.13
2022-12-26T09:37:30.181Z,4.28
2022-12-26T09:40:27.132Z,3.42
2022-12-26T09:43:32.048Z,2.88
2022-12-26T09:46:23.297Z,3.63
2022-12-26T09:49:41.694Z,2.50
2022-12-26T09:52:40.249Z,2.65
2022-12-26T09:55:44.414Z,3.08
2022-12-26T09:58:34.090Z,2.92
2022-12-26T10:01:23.705Z,2.72
2022-12-26T10:04:28.574Z,3.65
2022-12-26T10:07:30.633Z,3.40
2022-12-26T10:10:51.328Z,4.22
2022-12-26T10:14:03.580Z,2.50
2022-12-26T10:17:01.460Z,3.00
2022-12-26T10:20:29.444Z,2.92
2022-12-26T10:23:31.512Z,3.63
2022-12-26T10:26:39.608Z,3.28
2022-12-26T10:29:38.212Z,3.08
2022-12-26T10:32:33.530Z,3.08
2022-12-26T10:38:44.566Z,2.08
2022-12-26T10:41:41.893Z,2.80
2022-12-26T10:44:28.897Z,2.78
2022-12-26T10:47:32.842Z,2.50
2022-12-26T10:50:26.980Z,2.83
2022-12-26T10:53:14.384Z,2.15
2022-12-26T10:56:01.935Z,2.65
2022-12-26T10:58:59.101Z,2.70
2022-12-26T11:01:47.773Z,2.13
2022-12-26T11:07:49.622Z,2.67
2022-12-26T11:10:37.708Z,2.83
2022-12-26T11:13:23.463Z,2.97
2022-12-26T11:16:10.639Z,2.15
2022-12-26T11:18:57.374Z,2.28
2022-12-26T11:21:43.074Z,1.98
2022-12-26T11:24:28.592Z,2.25
2022-12-26T11:27:20.466Z,2.55
2022-12-26T11:30:14.986Z,2.42
2022-12-26T11:33:15.218Z,2.05
2022-12-26T11:36:15.285Z,2.25
2022-12-26T11:39:22.058Z,2.15
2022-12-26T11:42:15.137Z,2.08
2022-12-26T11:45:09.932Z,2.10
2022-12-26T11:47:58.031Z,2.10
2022-12-26T11:50:46.452Z,1.70
2022-12-26T11:53:34.566Z,2.40
2022-12-26T11:56:28.673Z,1.67
2022-12-26T11:59:23.801Z,2.00
2022-12-26T12:02:32.492Z,1.98
2022-12-26T12:05:56.185Z,2.30
2022-12-26T12:09:05.948Z,1.77
2022-12-26T12:12:12.581Z,1.92
2022-12-26T12:15:12.833Z,1.80
2022-12-26T12:18:19.392Z,1.60
2022-12-26T12:21:32.304Z,1.58
2022-12-26T12:24:32.457Z,1.40
2022-12-26T12:27:50.320Z,1.92
2022-12-26T12:30:47.049Z,1.35
2022-12-26T12:34:00.869Z,1.73
2022-12-26T12:37:08.955Z,1.50
2022-12-26T12:40:16.058Z,1.70
2022-12-26T12:43:42.770Z,1.27
2022-12-26T12:46:59.016Z,2.22
2022-12-26T12:50:09.625Z,1.88
2022-12-26T12:53:18.303Z,1.05
2022-12-26T12:56:37.021Z,1.90
2022-12-26T12:59:52.833Z,1.67
2022-12-26T13:02:41.683Z,1.65
2022-12-26T13:05:33.340Z,1.52
2022-12-26T13:08:30.792Z,1.67
2022-12-26T13:11:42.400Z,1.50
2022-12-26T13:14:34.919Z,2.08
2022-12-26T13:17:33.053Z,2.00
2022-12-26T13:20:25.715Z,1.95
2022-12-26T13:23:40.540Z,1.25
2022-12-26T13:26:39.100Z,1.50
2022-12-26T13:29:25.321Z,1.90
2022-12-26T13:32:22.115Z,1.67
2022-12-26T13:35:46.253Z,1.45
2022-12-26T13:38:56.481Z,1.80
2022-12-26T13:42:34.401Z,2.22
2022-12-26T13:45:35.726Z,1.63
2022-12-26T13:48:29.664Z,1.65
2022-12-26T13:51:53.630Z,1.75
2022-12-26T13:54:48.376Z,1.90
2022-12-26T13:57:42.718Z,2.25
2022-12-26T14:00:48.523Z,1.60
2022-12-26T14:06:41.829Z,1.85
2022-12-26T14:09:44.079Z,1.73
2022-12-26T14:12:47.553Z,1.75
2022-12-26T14:15:57.068Z,1.90
2022-12-26T14:19:04.765Z,1.58
2022-12-26T14:22:18.495Z,1.73
2022-12-26T14:25:23.915Z,2.20
2022-12-26T14:28:50.383Z,1.55
2022-12-26T14:35:05.988Z,2.13
2022-12-26T14:41:36.759Z,1.77
2022-12-26T14:44:22.447Z,2.67
2022-12-26T14:47:10.230Z,2.10
2022-12-26T14:49:55.737Z,2.60
2022-12-26T14:52:43.828Z,2.33
2022-12-26T14:55:47.880Z,2.30
2022-12-26T14:58:43.870Z,2.78
2022-12-26T15:01:32.624Z,2.35
2022-12-26T15:04:36.562Z,2.50
2022-12-26T15:08:09.758Z,2.20
2022-12-26T15:11:22.166Z,2.88
2022-12-26T15:14:41.446Z,2.60
2022-12-26T15:17:49.280Z,2.30
2022-12-26T15:20:44.634Z,2.60
2022-12-26T15:23:53.392Z,2.42
2022-12-26T15:26:57.060Z,2.25
2022-12-26T15:30:06.509Z,3.40
2022-12-26T15:33:11.592Z,2.42
2022-12-26T15:36:15.343Z,3.08
2022-12-26T15:39:21.640Z,2.22
2022-12-26T15:42:44.091Z,2.63
2022-12-26T15:45:48.089Z,2.90
2022-12-26T15:49:01.416Z,2.50
2022-12-26T15:51:59.388Z,3.35
2022-12-26T15:55:17.765Z,2.80
2022-12-26T15:58:20.032Z,3.30
2022-12-26T16:01:05.749Z,2.90
2022-12-26T16:03:55.738Z,3.10
2022-12-26T16:06:47.245Z,3.10
2022-12-26T16:09:44.339Z,2.95
2022-12-26T16:12:31.137Z,2.85
2022-12-26T16:15:17.783Z,3.10
2022-12-26T16:18:14.523Z,3.33
2022-12-26T16:21:26.085Z,3.55
2022-12-26T16:24:13.590Z,3.55
2022-12-26T16:27:02.795Z,4.85
2022-12-26T16:29:58.307Z,4.70
2022-12-26T16:32:44.445Z,4.93
2022-12-26T16:35:34.935Z,3.25
2022-12-26T16:38:30.260Z,4.30
2022-12-26T16:41:27.004Z,3.30
2022-12-26T16:44:35.389Z,3.30
2022-12-26T16:47:21.221Z,3.63
2022-12-26T16:50:14.835Z,3.20
2022-12-26T16:53:15.711Z,2.90
2022-12-26T16:56:26.874Z,3.10
2022-12-26T16:59:17.505Z,3.10
2022-12-26T17:02:04.233Z,3.97
2022-12-26T17:04:58.215Z,3.00
2022-12-26T17:07:46.495Z,3.28
2022-12-26T17:10:37.391Z,3.60
2022-12-26T17:13:26.386Z,5.15
2022-12-26T17:16:14.367Z,3.45
2022-12-26T17:19:19.037Z,3.42
2022-12-26T17:22:28.289Z,3.92
2022-12-26T17:25:33.490Z,3.58
2022-12-26T17:28:19.847Z,3.70
2022-12-26T17:31:17.260Z,4.35
2022-12-26T17:34:13.314Z,3.20
2022-12-26T17:37:20.552Z,2.88
2022-12-26T17:40:14.658Z,2.90
2022-12-26T17:43:14.494Z,3.20
2022-12-26T17:46:01.131Z,3.75
2022-12-26T17:48:46.850Z,2.97
2022-12-26T17:51:32.044Z,3.15
2022-12-26T17:54:17.767Z,3.55
2022-12-26T17:57:03.257Z,2.70
2022-12-26T17:59:50.428Z,2.53
2022-12-26T18:02:41.649Z,2.53
2022-12-26T18:05:27.375Z,3.30
2022-12-26T18:08:41.872Z,3.13
2022-12-26T18:11:28.334Z,2.97
2022-12-26T18:14:14.484Z,2.90
2022-12-26T18:17:01.868Z,2.92
2022-12-26T18:19:49.294Z,4.05
2022-12-26T18:22:34.704Z,2.38
2022-12-26T18:25:22.952Z,2.78
2022-12-26T18:28:16.848Z,3.67
2022-12-26T18:31:02.450Z,3.22
2022-12-26T18:33:47.698Z,3.50
2022-12-26T18:36:36.761Z,4.15
2022-12-26T18:39:22.002Z,3.70
2022-12-26T18:42:14.867Z,4.57
2022-12-26T18:45:00.436Z,4.18
2022-12-26T18:47:45.555Z,4.55
2022-12-26T18:50:32.423Z,6.57
2022-12-26T18:53:18.719Z,6.22
2022-12-26T18:56:05.638Z,6.90
2022-12-26T18:58:57.376Z,5.93
2022-12-26T19:01:43.704Z,7.28
2022-12-26T19:04:29.284Z,11.80
2022-12-26T19:07:17.053Z,14.13
2022-12-26T19:10:02.777Z,6.25
2022-12-26T19:12:48.649Z,4.00
2022-12-26T19:15:35.508Z,4.85
2022-12-26T19:18:20.752Z,4.68
2022-12-26T19:21:14.429Z,3.60
2022-12-26T19:23:59.728Z,4.22
2022-12-26T19:26:45.938Z,3.78
2022-12-26T19:29:32.927Z,3.97
2022-12-26T19:32:21.450Z,3.75
2022-12-26T19:35:07.695Z,3.90
2022-12-26T19:37:58.361Z,3.08
2022-12-26T19:40:43.912Z,3.75
2022-12-26T19:43:29.623Z,4.28
2022-12-26T19:46:15.922Z,4.10
2022-12-26T19:49:01.098Z,4.18
2022-12-26T19:51:46.709Z,5.45
2022-12-26T19:54:32.199Z,4.85
2022-12-26T19:57:17.792Z,4.82
2022-12-26T20:00:04.917Z,5.50
2022-12-26T20:02:57.432Z,6.05
2022-12-26T20:05:42.947Z,5.40
2022-12-26T20:08:29.195Z,5.60
2022-12-26T20:11:27.295Z,6.13
2022-12-26T20:14:15.617Z,5.95
2022-12-26T20:17:06.218Z,5.65
2022-12-26T20:19:53.073Z,6.13
2022-12-26T20:22:40.819Z,4.00
2022-12-26T20:25:27.841Z,5.35
2022-12-26T20:28:13.401Z,4.80
2022-12-26T20:31:11.618Z,4.32
2022-12-26T20:33:59.173Z,5.28
2022-12-26T20:36:44.677Z,5.70
2022-12-26T20:39:33.369Z,5.18
2022-12-26T20:42:21.870Z,6.22
2022-12-26T20:45:08.059Z,7.28
2022-12-26T20:47:53.664Z,9.32
2022-12-26T20:50:55.200Z,5.22
2022-12-26T20:53:41.491Z,5.43
2022-12-26T20:56:27.257Z,4.50
2022-12-26T20:59:12.788Z,4.82
2022-12-26T21:01:58.182Z,5.07
2022-12-26T21:04:46.410Z,6.30
2022-12-26T21:07:33.236Z,4.95
2022-12-26T21:10:18.603Z,6.97
2022-12-26T21:13:04.082Z,6.07
2022-12-26T21:15:52.412Z,4.47
2022-12-26T21:18:38.857Z,4.05
2022-12-26T21:21:27.449Z,4.10
2022-12-26T21:24:28.804Z,3.50
2022-12-26T21:27:16.964Z,4.10
2022-12-26T21:30:02.223Z,3.20
2022-12-26T21:32:47.512Z,3.42
2022-12-26T21:35:39.647Z,4.00
2022-12-26T21:38:28.885Z,4.47
2022-12-26T21:41:14.609Z,4.60
2022-12-26T21:44:00.363Z,3.80
2022-12-26T21:46:45.754Z,3.83
2022-12-26T21:49:40.488Z,3.38
2022-12-26T21:52:26.430Z,3.70
2022-12-26T21:55:26.968Z,3.75
2022-12-26T21:58:12.362Z,3.63
2022-12-26T22:01:18.977Z,3.72
2022-12-26T22:04:19.101Z,3.38
2022-12-26T22:07:04.412Z,4.13
2022-12-26T22:09:50.038Z,3.90
2022-12-26T22:12:54.132Z,3.97
2022-12-26T22:16:02.633Z,4.75
2022-12-26T22:18:48.084Z,4.35
2022-12-26T22:21:33.490Z,4.95
2022-12-26T22:24:18.876Z,4.00
2022-12-26T22:27:04.000Z,3.95
2022-12-26T22:29:49.519Z,4.28
2022-12-26T22:32:35.147Z,3.75
2022-12-26T22:35:21.429Z,4.00
2022-12-26T22:38:06.668Z,4.15
2022-12-26T22:40:57.895Z,3.97
2022-12-26T22:43:43.473Z,4.22
2022-12-26T22:46:29.200Z,4.50
2022-12-26T22:49:14.511Z,4.20
2022-12-26T22:52:02.921Z,4.25
2022-12-26T22:54:48.213Z,3.80
2022-12-26T22:57:33.816Z,4.10
2022-12-26T23:00:19.610Z,4.20
2022-12-26T23:03:05.340Z,3.97
2022-12-26T23:05:51.051Z,8.00
2022-12-26T23:08:41.472Z,3.50
2022-12-26T23:11:34.332Z,4.40
2022-12-26T23:14:20.990Z,3.80
2022-12-26T23:17:10.627Z,4.22
2022-12-26T23:20:14.640Z,3.80
2022-12-26T23:23:00.158Z,3.78
2022-12-26T23:25:47.990Z,4.10
2022-12-26T23:28:51.964Z,4.03
2022-12-26T23:31:37.608Z,5.25
2022-12-26T23:34:29.177Z,4.80
2022-12-26T23:37:14.451Z,4.93
2022-12-26T23:40:00.052Z,4.10
2022-12-26T23:42:46.021Z,5.68
2022-12-26T23:45:31.628Z,3.90
2022-12-26T23:48:17.375Z,3.70
2022-12-26T23:51:05.027Z,3.92
2022-12-26T23:53:50.587Z,4.03
2022-12-26T23:56:36.433Z,3.53
2022-12-26T23:59:21.922Z,3.75
